sensor_id;sensor_type;location;lat;lon;timestamp;P1;P2;P0
36513;PMS5003;66331;46.796;9.824;2022-12-29T18:57:43;12;12;
36513;PMS5003;66331;46.796;9.824;2022-12-29T19:00:11;14;12;
36513;PMS5003;66331;46.796;9.824;2022-12-29T19:02:40;11;9;
36513;PMS5003;66331;46.796;9.824;2022-12-29T19:05:13;15;15;
36513;PMS5003;66331;46.796;9.824;2022-12-29T19:07:45;15;14;
36513;PMS5003;66331;46.796;9.824;2022-12-29T19:10:12;15;12;
36513;PMS5003;66331;46.796;9.824;2022-12-29T19:12:39;11;10;
36513;PMS5003;66331;46.796;9.824;2022-12-29T19:15:09;14;14;
36513;PMS5003;66331;46.796;9.824;2022-12-29T19:17:44;14;14;
36513;PMS5003;66331;46.796;9.824;2022-12-29T19:20:18;17;16;
36513;PMS5003;66331;46.796;9.824;2022-12-29T19:22:51;13;11;
36513;PMS5003;66331;46.796;9.824;2022-12-29T19:25:18;16;16;
36513;PMS5003;66331;46.796;9.824;2022-12-29T19:27:45;17;16;
36513;PMS5003;66331;46.796;9.824;2022-12-29T19:30:12;14;13;
36513;PMS5003;66331;46.796;9.824;2022-12-29T19:32:40;13;13;
36513;PMS5003;66331;46.796;9.824;2022-12-29T19:35:08;14;13;
36513;PMS5003;66331;46.796;9.824;2022-12-29T19:37:36;13;13;
36513;PMS5003;66331;46.796;9.824;2022-12-29T19:40:03;22;16;
36513;PMS5003;66331;46.796;9.824;2022-12-29T19:42:31;10;10;
36513;PMS5003;66331;46.796;9.824;2022-12-29T19:44:57;8;8;
36513;PMS5003;66331;46.796;9.824;2022-12-29T19:47:24;15;15;
36513;PMS5003;66331;46.796;9.824;2022-12-29T19:49:52;35;33;
36513;PMS5003;66331;46.796;9.824;2022-12-29T19:52:19;19;17;
36513;PMS5003;66331;46.796;9.824;2022-12-29T19:54:46;10;9;
36513;PMS5003;66331;46.796;9.824;2022-12-29T19:57:13;9;8;
36513;PMS5003;66331;46.796;9.824;2022-12-29T19:59:40;7;7;
36513;PMS5003;66331;46.796;9.824;2022-12-29T20:02:08;10;10;
36513;PMS5003;66331;46.796;9.824;2022-12-29T20:04:43;9;8;
36513;PMS5003;66331;46.796;9.824;2022-12-29T20:07:10;10;10;
36513;PMS5003;66331;46.796;9.824;2022-12-29T20:09:37;14;13;
36513;PMS5003;66331;46.796;9.824;2022-12-29T20:12:04;16;16;
36513;PMS5003;66331;46.796;9.824;2022-12-29T20:14:32;19;17;
36513;PMS5003;66331;46.796;9.824;2022-12-29T20:16:59;16;14;
36513;PMS5003;66331;46.796;9.824;2022-12-29T20:19:26;25;25;
36513;PMS5003;66331;46.796;9.824;2022-12-29T20:21:53;20;20;
36513;PMS5003;66331;46.796;9.824;2022-12-29T20:24:20;8;7;
36513;PMS5003;66331;46.796;9.824;2022-12-29T20:26:47;10;10;
36513;PMS5003;66331;46.796;9.824;2022-12-29T20:29:14;19;16;
36513;PMS5003;66331;46.796;9.824;2022-12-29T20:31:41;20;20;
36513;PMS5003;66331;46.796;9.824;2022-12-29T20:34:08;13;11;
36513;PMS5003;66331;46.796;9.824;2022-12-29T20:36:36;13;10;
36513;PMS5003;66331;46.796;9.824;2022-12-29T20:39:07;21;20;
36513;PMS5003;66331;46.796;9.824;2022-12-29T20:41:35;24;24;
36513;PMS5003;66331;46.796;9.824;2022-12-29T20:44:02;22;21;
36513;PMS5003;66331;46.796;9.824;2022-12-29T20:46:29;20;17;
36513;PMS5003;66331;46.796;9.824;2022-12-29T20:48:56;14;11;
36513;PMS5003;66331;46.796;9.824;2022-12-29T20:51:23;10;9;
36513;PMS5003;66331;46.796;9.824;2022-12-29T20:53:51;14;14;
36513;PMS5003;66331;46.796;9.824;2022-12-29T20:56:19;16;15;
36513;PMS5003;66331;46.796;9.824;2022-12-29T20:58:50;8;8;
36513;PMS5003;66331;46.796;9.824;2022-12-29T21:01:18;14;13;
36513;PMS5003;66331;46.796;9.824;2022-12-29T21:03:48;11;10;
36513;PMS5003;66331;46.796;9.824;2022-12-29T21:06:15;14;13;
36513;PMS5003;66331;46.796;9.824;2022-12-29T21:08:44;8;7;
36513;PMS5003;66331;46.796;9.824;2022-12-29T21:11:37;9;9;
36513;PMS5003;66331;46.796;9.824;2022-12-29T21:14:26;8;7;
36513;PMS5003;66331;46.796;9.824;2022-12-29T21:17:13;7;7;
36513;PMS5003;66331;46.796;9.824;2022-12-29T21:19:43;14;10;
36513;PMS5003;66331;46.796;9.824;2022-12-29T21:22:27;9;8;
36513;PMS5003;66331;46.796;9.824;2022-12-29T21:25:01;10;8;
36513;PMS5003;66331;46.796;9.824;2022-12-29T21:27:39;13;8;
36513;PMS5003;66331;46.796;9.824;2022-12-29T21:30:07;8;7;
36513;PMS5003;66331;46.796;9.824;2022-12-29T21:32:35;5;5;
36513;PMS5003;66331;46.796;9.824;2022-12-29T21:35:02;5;5;
36513;PMS5003;66331;46.796;9.824;2022-12-29T21:37:29;4;4;
36513;PMS5003;66331;46.796;9.824;2022-12-29T21:39:56;4;4;
36513;PMS5003;66331;46.796;9.824;2022-12-29T21:42:23;3;3;
36513;PMS5003;66331;46.796;9.824;2022-12-29T21:44:50;2;2;
36513;PMS5003;66331;46.796;9.824;2022-12-29T21:47:17;1;1;
36513;PMS5003;66331;46.796;9.824;2022-12-29T21:49:44;2;2;
36513;PMS5003;66331;46.796;9.824;2022-12-29T21:52:11;7;5;
36513;PMS5003;66331;46.796;9.824;2022-12-29T21:54:38;10;9;
36513;PMS5003;66331;46.796;9.824;2022-12-29T21:57:05;10;9;
36513;PMS5003;66331;46.796;9.824;2022-12-29T21:59:33;7;7;
36513;PMS5003;66331;46.796;9.824;2022-12-29T22:02:00;2;2;
36513;PMS5003;66331;46.796;9.824;2022-12-29T22:04:29;7;5;
36513;PMS5003;66331;46.796;9.824;2022-12-29T22:06:56;7;5;
36513;PMS5003;66331;46.796;9.824;2022-12-29T22:09:22;10;8;
36513;PMS5003;66331;46.796;9.824;2022-12-29T22:11:49;11;9;
36513;PMS5003;66331;46.796;9.824;2022-12-29T22:14:16;10;10;
36513;PMS5003;66331;46.796;9.824;2022-12-29T22:16:44;12;12;
36513;PMS5003;66331;46.796;9.824;2022-12-29T22:19:10;11;10;
36513;PMS5003;66331;46.796;9.824;2022-12-29T22:21:37;10;8;
36513;PMS5003;66331;46.796;9.824;2022-12-29T22:24:04;4;4;
36513;PMS5003;66331;46.796;9.824;2022-12-29T22:26:32;4;3;
36513;PMS5003;66331;46.796;9.824;2022-12-29T22:28:58;18;15;
36513;PMS5003;66331;46.796;9.824;2022-12-29T22:31:26;29;26;
36513;PMS5003;66331;46.796;9.824;2022-12-29T22:33:55;15;13;
36513;PMS5003;66331;46.796;9.824;2022-12-29T22:36:24;10;10;
36513;PMS5003;66331;46.796;9.824;2022-12-29T22:38:52;13;11;
36513;PMS5003;66331;46.796;9.824;2022-12-29T22:41:20;17;14;
36513;PMS5003;66331;46.796;9.824;2022-12-29T22:43:47;13;10;
36513;PMS5003;66331;46.796;9.824;2022-12-29T22:46:14;15;11;
36513;PMS5003;66331;46.796;9.824;2022-12-29T22:48:41;21;17;
36513;PMS5003;66331;46.796;9.824;2022-12-29T22:51:08;24;19;
36513;PMS5003;66331;46.796;9.824;2022-12-29T22:53:36;13;12;
36513;PMS5003;66331;46.796;9.824;2022-12-29T22:56:04;10;10;
36513;PMS5003;66331;46.796;9.824;2022-12-29T22:58:32;15;13;
36513;PMS5003;66331;46.796;9.824;2022-12-29T23:00:59;15;10;
36513;PMS5003;66331;46.796;9.824;2022-12-29T23:03:27;20;17;
36513;PMS5003;66331;46.796;9.824;2022-12-29T23:05:55;15;14;
36513;PMS5003;66331;46.796;9.824;2022-12-29T23:08:23;18;15;
36513;PMS5003;66331;46.796;9.824;2022-12-29T23:10:51;14;13;
36513;PMS5003;66331;46.796;9.824;2022-12-29T23:13:19;14;14;
36513;PMS5003;66331;46.796;9.824;2022-12-29T23:15:45;11;9;
36513;PMS5003;66331;46.796;9.824;2022-12-29T23:18:13;11;9;
36513;PMS5003;66331;46.796;9.824;2022-12-29T23:20:41;11;11;
36513;PMS5003;66331;46.796;9.824;2022-12-29T23:23:08;9;9;
36513;PMS5003;66331;46.796;9.824;2022-12-29T23:25:36;10;10;
36513;PMS5003;66331;46.796;9.824;2022-12-29T23:28:04;8;7;
36513;PMS5003;66331;46.796;9.824;2022-12-29T23:30:33;10;9;
36513;PMS5003;66331;46.796;9.824;2022-12-29T23:33:00;8;7;
36513;PMS5003;66331;46.796;9.824;2022-12-29T23:35:27;7;7;
36513;PMS5003;66331;46.796;9.824;2022-12-29T23:37:54;9;8;
36513;PMS5003;66331;46.796;9.824;2022-12-29T23:40:21;10;9;
36513;PMS5003;66331;46.796;9.824;2022-12-29T23:42:48;11;9;
36513;PMS5003;66331;46.796;9.824;2022-12-29T23:45:15;9;9;
36513;PMS5003;66331;46.796;9.824;2022-12-29T23:47:42;8;8;
36513;PMS5003;66331;46.796;9.824;2022-12-29T23:50:09;8;7;
36513;PMS5003;66331;46.796;9.824;2022-12-29T23:52:36;9;7;
36513;PMS5003;66331;46.796;9.824;2022-12-29T23:55:03;7;7;
36513;PMS5003;66331;46.796;9.824;2022-12-29T23:57:31;7;7;
36513;PMS5003;66331;46.796;9.824;2022-12-29T23:59:58;7;7;
